Time;durP1;ratioP1;P1;durP2;ratioP2;P2;SDS_P1;SDS_P2;PMS_P1;PMS_P2;Temp;Humidity;BMP_temperature;BMP_pressure;BME280_temperature;BME280_humidity;BME280_pressure;Samples;Min_cycle;Max_cycle;Signal;HPM_P1;HPM_P2
2021/08/25 00:00:43;;;;;;;8.70;4.28;;;;;;;17.06;83.78;97737.87;1710763;82;21051;-82
2021/08/25 00:03:10;;;;;;;4.17;3.52;;;;;;;17.08;83.59;97734.61;1709121;84;21027;-83
2021/08/25 00:05:37;;;;;;;6.10;3.87;;;;;;;17.08;83.56;97731.93;1709319;84;21012;-82
2021/08/25 00:08:05;;;;;;;5.37;3.60;;;;;;;17.13;83.54;97722.67;1732252;82;21009;-83
2021/08/25 00:10:32;;;;;;;6.30;3.52;;;;;;;17.17;83.23;97724.68;1711758;82;21093;-83
2021/08/25 00:13:03;;;;;;;8.30;4.20;;;;;;;17.20;83.23;97725.84;1707547;84;21013;-82
2021/08/25 00:15:27;;;;;;;7.25;4.10;;;;;;;17.19;83.00;97719.23;1708958;82;20984;-82
2021/08/25 00:17:54;;;;;;;4.50;3.98;;;;;;;17.20;82.85;97719.15;1708696;84;21437;-83
2021/08/25 00:20:21;;;;;;;5.47;4.58;;;;;;;17.13;83.17;97716.45;1707991;84;21001;-83
2021/08/25 00:22:47;;;;;;;5.42;4.20;;;;;;;17.08;82.77;97707.37;1707889;84;21051;-83
2021/08/25 00:25:14;;;;;;;4.90;4.40;;;;;;;17.07;82.85;97702.95;1709103;82;20968;-83
2021/08/25 00:27:40;;;;;;;6.70;4.37;;;;;;;17.06;83.19;97712.44;1709247;84;21064;-83
2021/08/25 00:30:08;;;;;;;10.75;4.78;;;;;;;17.02;83.09;97713.04;1707889;84;21048;-83
2021/08/25 00:32:34;;;;;;;7.12;5.60;;;;;;;17.01;82.91;97719.36;1707848;83;21084;-83
2021/08/25 00:35:00;;;;;;;7.42;5.00;;;;;;;16.97;83.00;97722.70;1710502;82;21546;-83
2021/08/25 00:37:27;;;;;;;5.78;5.03;;;;;;;16.89;83.49;97721.83;1707926;84;21068;-83
2021/08/25 00:39:53;;;;;;;5.58;4.97;;;;;;;16.88;83.16;97721.91;1707901;84;20965;-83
2021/08/25 00:42:19;;;;;;;5.78;4.70;;;;;;;16.87;83.77;97725.05;1707962;84;21035;-84
2021/08/25 00:44:46;;;;;;;6.90;5.12;;;;;;;16.88;83.77;97721.45;1708851;82;21428;-83
2021/08/25 00:47:14;;;;;;;5.75;4.80;;;;;;;16.88;83.04;97728.14;1703188;84;21057;-82
2021/08/25 00:49:41;;;;;;;8.48;5.45;;;;;;;16.86;83.06;97722.49;1701157;84;21410;-82
2021/08/25 00:52:07;;;;;;;5.20;4.60;;;;;;;16.84;83.11;97713.22;1701126;84;21000;-82
2021/08/25 00:54:34;;;;;;;5.78;5.17;;;;;;;16.83;83.29;97706.61;1703539;83;21047;-82
2021/08/25 00:57:00;;;;;;;6.33;5.55;;;;;;;16.85;83.68;97706.03;1736078;83;20998;-82
2021/08/25 00:59:27;;;;;;;7.58;5.60;;;;;;;16.84;83.67;97697.62;1714808;82;21032;-82
2021/08/25 01:02:18;;;;;;;5.90;4.70;;;;;;;16.83;83.08;97694.10;1702302;83;21028;-83
2021/08/25 01:04:52;;;;;;;9.60;5.50;;;;;;;16.84;83.84;97681.56;1733067;82;21011;-82
2021/08/25 01:07:24;;;;;;;5.40;4.90;;;;;;;16.84;83.25;97673.53;1736051;83;20958;-82
2021/08/25 01:09:52;;;;;;;7.37;4.78;;;;;;;16.85;84.27;97673.91;1709424;83;20969;-82
2021/08/25 01:12:25;;;;;;;8.60;5.33;;;;;;;16.84;83.28;97667.72;1703382;83;20996;-82
2021/08/25 01:14:51;;;;;;;9.00;5.10;;;;;;;16.88;83.04;97669.26;1701000;83;21594;-82
2021/08/25 01:17:25;;;;;;;5.28;4.67;;;;;;;16.91;83.09;97667.34;1700518;84;21481;-82
2021/08/25 01:20:02;;;;;;;6.78;4.50;;;;;;;16.95;83.37;97673.77;1692893;84;21032;-82
2021/08/25 01:22:29;;;;;;;4.95;4.03;;;;;;;16.95;83.37;97673.77;1701265;83;21045;-82
2021/08/25 01:24:57;;;;;;;7.78;5.12;;;;;;;16.93;84.02;97684.18;1701186;84;21044;-83
2021/08/25 01:27:28;;;;;;;5.42;4.85;;;;;;;16.95;83.63;97684.94;1700780;84;21056;-83
2021/08/25 01:29:59;;;;;;;5.90;4.90;;;;;;;16.94;83.76;97682.72;1701055;84;21020;-83
2021/08/25 01:32:27;;;;;;;6.47;5.08;;;;;;;16.94;83.89;97688.08;1724568;83;21445;-83
2021/08/25 01:34:57;;;;;;;10.90;4.92;;;;;;;16.87;83.88;97686.74;1735810;82;21196;-82
2021/08/25 01:37:26;;;;;;;5.35;4.35;;;;;;;16.84;83.88;97683.77;1722361;83;21028;-82
2021/08/25 01:39:53;;;;;;;5.50;4.70;;;;;;;16.83;83.75;97678.05;1701044;84;21051;-83
2021/08/25 01:42:20;;;;;;;7.50;4.47;;;;;;;16.78;83.17;97686.83;1722849;83;20971;-83
2021/08/25 01:44:51;;;;;;;6.37;4.78;;;;;;;16.78;83.46;97687.30;1714459;83;21024;-83
2021/08/25 01:47:20;;;;;;;7.03;4.58;;;;;;;16.83;83.12;97695.91;1699336;84;21020;-82
2021/08/25 01:49:48;;;;;;;5.60;4.55;;;;;;;16.81;82.45;97702.68;1699597;84;21027;-82
2021/08/25 01:52:16;;;;;;;5.72;4.33;;;;;;;16.70;82.05;97698.45;1701133;83;21052;-83
2021/08/25 01:54:47;;;;;;;5.58;4.72;;;;;;;16.58;81.94;97700.05;1701010;84;21418;-83
2021/08/25 01:57:14;;;;;;;5.28;4.33;;;;;;;16.42;81.99;97699.61;1700819;84;20973;-83
2021/08/25 01:59:40;;;;;;;5.05;4.42;;;;;;;16.30;82.39;97694.96;1699595;84;20949;-82
2021/08/25 02:02:07;;;;;;;5.20;4.17;;;;;;;16.27;82.89;97687.14;1701037;83;21362;-82
2021/08/25 02:04:34;;;;;;;4.87;4.33;;;;;;;16.22;82.64;97674.02;1701148;84;21391;-82
2021/08/25 02:07:02;;;;;;;10.78;4.78;;;;;;;16.15;82.71;97683.36;1700819;84;21023;-82
2021/08/25 02:09:28;;;;;;;6.60;4.67;;;;;;;16.08;82.49;97686.36;1700289;83;21020;-82
2021/08/25 02:11:54;;;;;;;8.70;5.28;;;;;;;15.95;83.31;97686.20;1701071;84;21028;-83
2021/08/25 02:14:21;;;;;;;5.62;4.40;;;;;;;15.91;83.50;97687.78;1701093;84;21386;-83
2021/08/25 02:16:48;;;;;;;6.25;4.60;;;;;;;15.87;83.44;97683.55;1700853;84;21068;-83
2021/08/25 02:19:15;;;;;;;6.95;4.80;;;;;;;15.71;84.52;97676.39;1706100;83;20988;-82
2021/08/25 02:21:42;;;;;;;8.38;4.80;;;;;;;15.67;83.61;97680.19;1701091;84;21039;-82
2021/08/25 02:24:08;;;;;;;5.72;4.70;;;;;;;15.56;84.33;97674.97;1700925;84;21434;-82
2021/08/25 02:26:35;;;;;;;6.72;4.10;;;;;;;15.49;84.08;97663.38;1701137;84;21037;-82
2021/08/25 02:29:01;;;;;;;12.50;5.53;;;;;;;15.36;86.96;97657.84;1700533;83;20980;-83
2021/08/25 02:31:28;;;;;;;6.00;4.70;;;;;;;15.28;85.99;97652.93;1701129;84;21065;-82
2021/08/25 02:33:54;;;;;;;5.85;4.60;;;;;;;15.09;88.90;97649.91;1700754;84;21124;-82
2021/08/25 02:36:22;;;;;;;4.92;4.40;;;;;;;14.94;90.02;97647.58;1700960;84;21397;-83
2021/08/25 02:38:50;;;;;;;6.45;4.95;;;;;;;14.90;88.75;97652.68;1717415;83;21004;-83
2021/08/25 02:41:18;;;;;;;5.05;4.33;;;;;;;14.89;87.74;97645.63;1732170;83;21035;-83
2021/08/25 02:43:45;;;;;;;4.80;4.17;;;;;;;14.91;87.68;97639.75;1700825;84;21068;-83
2021/08/25 02:46:12;;;;;;;5.03;3.95;;;;;;;14.93;87.53;97648.98;1700227;84;21076;-83
2021/08/25 02:48:39;;;;;;;5.47;4.10;;;;;;;14.94;88.15;97654.25;1699300;83;21385;-83
2021/08/25 02:51:06;;;;;;;6.35;4.42;;;;;;;14.97;90.19;97635.41;1698458;84;21036;-83
2021/08/25 02:53:32;;;;;;;5.10;3.52;;;;;;;14.91;89.62;97637.92;1734620;83;20971;-83
2021/08/25 02:55:59;;;;;;;4.25;3.55;;;;;;;14.92;88.68;97621.45;1721717;82;20945;-83
2021/08/25 02:58:25;;;;;;;7.08;4.40;;;;;;;14.91;88.20;97621.92;1700947;84;21025;-83
2021/08/25 03:00:52;;;;;;;6.05;4.00;;;;;;;14.86;89.11;97630.64;1700629;84;21513;-83
2021/08/25 03:03:18;;;;;;;4.70;3.80;;;;;;;14.91;88.74;97623.25;1701275;83;21008;-83
2021/08/25 03:05:45;;;;;;;4.33;3.92;;;;;;;14.95;89.49;97638.63;1701005;83;21059;-83
2021/08/25 03:08:11;;;;;;;8.15;5.08;;;;;;;14.95;88.82;97642.62;1701010;84;21036;-83
2021/08/25 03:10:38;;;;;;;6.65;4.47;;;;;;;14.96;88.57;97651.05;1700614;84;21462;-83
2021/08/25 03:13:05;;;;;;;5.92;4.65;;;;;;;14.99;88.26;97636.18;1701022;83;21000;-83
2021/08/25 03:15:31;;;;;;;6.67;5.37;;;;;;;15.02;88.80;97644.49;1701032;84;21024;-83
2021/08/25 03:17:58;;;;;;;8.15;6.30;;;;;;;14.98;88.12;97653.60;1700873;84;21513;-84
2021/08/25 03:20:25;;;;;;;8.35;5.80;;;;;;;14.95;87.96;97661.30;1700852;84;21422;-83
2021/08/25 03:22:52;;;;;;;9.43;5.95;;;;;;;14.90;88.23;97658.89;1701206;83;21072;-83
2021/08/25 03:25:18;;;;;;;10.28;6.33;;;;;;;14.83;88.87;97662.84;1700893;84;20973;-83
2021/08/25 03:27:45;;;;;;;7.90;6.33;;;;;;;14.78;89.59;97659.52;1700783;84;21493;-83
2021/08/25 03:30:12;;;;;;;9.25;6.05;;;;;;;14.73;89.54;97657.08;1699507;84;20976;-83
2021/08/25 03:32:38;;;;;;;10.10;7.58;;;;;;;14.62;90.27;97662.11;1701453;83;21075;-83
2021/08/25 03:35:06;;;;;;;9.63;6.60;;;;;;;14.57;89.87;97657.00;1700372;84;20985;-83
2021/08/25 03:37:38;;;;;;;10.65;7.08;;;;;;;14.55;89.65;97653.56;1699371;84;21173;-82
2021/08/25 03:40:01;;;;;;;9.83;7.20;;;;;;;14.55;89.53;97648.22;1699248;84;20993;-83
2021/08/25 03:42:27;;;;;;;12.73;7.15;;;;;;;14.47;90.96;97650.41;1701521;83;21037;-83
2021/08/25 03:44:54;;;;;;;11.05;7.00;;;;;;;14.47;90.02;97656.62;1700723;84;21508;-82
2021/08/25 03:47:20;;;;;;;10.85;6.80;;;;;;;14.49;89.79;97659.22;1726944;83;21424;-82
2021/08/25 03:49:47;;;;;;;11.18;6.92;;;;;;;14.46;90.79;97661.56;1736115;83;21018;-83
2021/08/25 03:52:13;;;;;;;8.05;6.40;;;;;;;14.45;89.87;97663.81;1711255;83;21079;-83
2021/08/25 03:54:39;;;;;;;10.28;6.53;;;;;;;14.45;91.20;97662.48;1700743;84;21096;-82
2021/08/25 03:57:06;;;;;;;11.20;6.20;;;;;;;14.44;89.47;97659.89;1715403;83;20990;-82
2021/08/25 03:59:32;;;;;;;9.83;5.87;;;;;;;14.48;89.05;97659.67;1736123;82;21443;-83
2021/08/25 04:01:59;;;;;;;7.90;5.85;;;;;;;14.49;89.93;97655.22;1712893;83;20973;-82
2021/08/25 04:04:26;;;;;;;9.38;6.47;;;;;;;14.48;90.41;97661.47;1701213;84;20993;-82
2021/08/25 04:06:52;;;;;;;6.67;5.15;;;;;;;14.51;89.52;97670.66;1699664;84;21025;-81
2021/08/25 04:09:18;;;;;;;8.13;5.62;;;;;;;14.57;89.38;97663.66;1699533;84;21421;-82
2021/08/25 04:11:45;;;;;;;6.53;4.90;;;;;;;14.68;89.26;97671.12;1701404;83;21048;-82
2021/08/25 04:14:11;;;;;;;9.25;5.37;;;;;;;14.72;88.99;97668.69;1724744;83;21485;-82
2021/08/25 04:16:38;;;;;;;8.40;5.97;;;;;;;14.80;88.83;97662.98;1700971;83;21008;-82
2021/08/25 04:19:04;;;;;;;9.03;5.22;;;;;;;14.87;88.54;97656.38;1699630;84;20994;-83
2021/08/25 04:21:31;;;;;;;7.33;5.10;;;;;;;14.91;88.36;97659.27;1713528;83;20955;-82
2021/08/25 04:23:57;;;;;;;8.28;5.15;;;;;;;14.97;88.18;97660.77;1736036;83;20962;-82
2021/08/25 04:26:24;;;;;;;8.70;4.67;;;;;;;15.02;88.17;97662.72;1706112;83;21032;-83
2021/08/25 04:28:50;;;;;;;5.70;4.00;;;;;;;15.10;88.00;97664.97;1701057;84;20992;-83
2021/08/25 04:31:17;;;;;;;6.42;3.83;;;;;;;15.11;87.10;97654.68;1710126;83;20990;-83
2021/08/25 04:33:43;;;;;;;6.85;3.30;;;;;;;15.06;87.22;97663.41;1735980;83;21396;-83
2021/08/25 04:36:10;;;;;;;2.90;2.22;;;;;;;15.08;86.97;97667.33;1709495;83;21020;-83
2021/08/25 04:38:36;;;;;;;4.20;2.72;;;;;;;14.98;85.33;97661.61;1701787;84;21004;-83
2021/08/25 04:41:03;;;;;;;3.55;2.58;;;;;;;14.86;85.65;97659.14;1706250;83;21001;-83
2021/08/25 04:43:29;;;;;;;3.30;2.12;;;;;;;14.83;85.61;97657.96;1735925;83;20967;-83
2021/08/25 04:45:56;;;;;;;3.08;2.35;;;;;;;14.73;84.97;97658.41;1713424;83;21021;-83
2021/08/25 04:48:23;;;;;;;3.12;2.22;;;;;;;14.64;85.36;97653.09;1701103;84;21059;-83
2021/08/25 04:50:49;;;;;;;2.98;2.45;;;;;;;14.59;85.20;97655.59;1702484;83;20992;-83
2021/08/25 04:53:17;;;;;;;5.12;2.40;;;;;;;14.56;86.14;97651.73;1735946;83;20967;-83
2021/08/25 04:55:44;;;;;;;3.15;2.22;;;;;;;14.56;86.94;97657.07;1716489;83;21589;-84
2021/08/25 04:58:10;;;;;;;2.80;2.45;;;;;;;14.55;86.48;97654.89;1701056;84;21016;-83
2021/08/25 05:00:37;;;;;;;3.37;2.50;;;;;;;14.55;86.10;97662.89;1701285;84;21055;-83
2021/08/25 05:03:03;;;;;;;2.80;2.40;;;;;;;14.45;87.58;97665.15;1729551;83;20989;-83
2021/08/25 05:05:30;;;;;;;3.50;2.67;;;;;;;14.41;86.31;97665.39;1701196;84;21036;-83
2021/08/25 05:07:56;;;;;;;3.30;2.60;;;;;;;14.42;86.20;97658.66;1701174;84;21640;-83
2021/08/25 05:10:23;;;;;;;5.40;2.60;;;;;;;14.41;85.97;97659.58;1719218;83;20946;-84
2021/08/25 05:12:49;;;;;;;3.30;2.20;;;;;;;14.38;85.78;97669.08;1735239;82;20982;-83
2021/08/25 05:15:15;;;;;;;6.12;2.92;;;;;;;14.34;85.79;97658.17;1672816;86;21440;-83
2021/08/25 05:17:42;;;;;;;5.15;2.67;;;;;;;14.29;86.04;97659.75;1694227;84;21012;-83
2021/08/25 05:20:10;;;;;;;4.60;2.90;;;;;;;14.29;85.86;97660.21;1715219;83;20982;-82
2021/08/25 05:22:36;;;;;;;3.52;3.10;;;;;;;14.25;86.21;97655.52;1735771;83;21404;-83
2021/08/25 05:25:04;;;;;;;5.08;3.92;;;;;;;14.20;87.29;97649.55;1702192;83;20980;-83
2021/08/25 05:27:31;;;;;;;5.47;4.58;;;;;;;14.06;87.16;97645.77;1701561;83;21087;-82
2021/08/25 05:29:58;;;;;;;3.95;3.58;;;;;;;14.02;87.55;97655.30;1712049;83;21425;-83
2021/08/25 05:32:24;;;;;;;4.45;3.77;;;;;;;13.99;87.55;97661.18;1735874;83;21002;-83
2021/08/25 05:34:50;;;;;;;5.00;4.47;;;;;;;13.95;88.00;97660.94;1705789;83;21012;-83
2021/08/25 05:37:17;;;;;;;6.90;5.45;;;;;;;13.89;88.49;97651.05;1699605;84;21044;-83
2021/08/25 05:39:43;;;;;;;8.03;6.12;;;;;;;13.83;88.65;97653.06;1700719;83;21418;-83
2021/08/25 05:42:10;;;;;;;6.35;5.85;;;;;;;13.84;88.49;97653.94;1701066;84;20996;-83
2021/08/25 05:44:36;;;;;;;6.37;5.67;;;;;;;13.81;88.72;97653.63;1699909;84;21008;-83
2021/08/25 05:47:03;;;;;;;8.10;7.20;;;;;;;13.86;88.92;97662.25;1699576;84;21013;-83
2021/08/25 05:49:29;;;;;;;3.80;3.50;;;;;;;13.89;88.79;97663.03;1700389;83;20993;-84
2021/08/25 05:51:56;;;;;;;3.25;2.95;;;;;;;13.86;88.86;97662.25;1701270;84;20984;-84
2021/08/25 05:54:22;;;;;;;3.80;2.58;;;;;;;13.88;88.45;97657.31;1700491;84;21063;-84
2021/08/25 05:56:48;;;;;;;4.33;2.40;;;;;;;13.92;88.72;97650.91;1701273;84;20985;-83
2021/08/25 05:59:15;;;;;;;2.12;2.00;;;;;;;13.91;88.62;97653.18;1701114;84;21076;-83
2021/08/25 06:01:42;;;;;;;4.90;2.22;;;;;;;13.98;88.47;97652.80;1734576;83;20959;-83
2021/08/25 06:04:08;;;;;;;5.20;2.10;;;;;;;14.02;88.30;97645.52;1734628;83;21014;-83
2021/08/25 06:06:35;;;;;;;3.45;1.67;;;;;;;13.98;88.52;97651.47;1700767;84;21518;-83
2021/08/25 06:09:07;;;;;;;1.92;1.70;;;;;;;14.04;88.43;97646.78;1701130;84;21008;-84
2021/08/25 06:11:36;;;;;;;6.15;2.42;;;;;;;14.11;88.23;97663.72;1732982;83;21357;-83
2021/08/25 06:14:02;;;;;;;2.83;2.12;;;;;;;14.15;88.09;97672.91;1735616;83;21018;-84
2021/08/25 06:16:29;;;;;;;4.55;2.12;;;;;;;14.16;87.90;97675.47;1701023;83;21008;-83
2021/08/25 06:18:55;;;;;;;5.75;2.20;;;;;;;14.06;87.48;97677.73;1717685;83;21006;-83
2021/08/25 06:21:22;;;;;;;2.75;2.25;;;;;;;14.02;87.24;97665.50;1735868;83;20975;-83
2021/08/25 06:23:48;;;;;;;3.55;2.12;;;;;;;14.05;87.51;97668.48;1735891;83;20986;-83
2021/08/25 06:26:15;;;;;;;2.80;2.33;;;;;;;14.05;87.20;97675.14;1701144;83;21454;-83
2021/08/25 06:28:43;;;;;;;3.92;2.47;;;;;;;14.06;87.29;97667.53;1703149;83;21433;-83
2021/08/25 06:31:09;;;;;;;4.78;2.83;;;;;;;14.06;86.88;97668.86;1725341;83;21460;-85
2021/08/25 06:33:35;;;;;;;3.90;2.55;;;;;;;14.06;87.26;97667.08;1702653;83;21026;-85
2021/08/25 06:36:02;;;;;;;2.60;2.40;;;;;;;14.07;87.23;97656.80;1689616;83;21505;-85
2021/08/25 06:38:29;;;;;;;4.62;2.60;;;;;;;14.09;88.94;97656.28;1697761;83;21052;-85
2021/08/25 06:40:55;;;;;;;4.37;2.58;;;;;;;14.11;88.05;97657.05;1699074;83;21497;-85
2021/08/25 06:43:21;;;;;;;3.50;2.75;;;;;;;14.09;88.47;97661.61;1680371;83;21020;-85
2021/08/25 06:45:48;;;;;;;8.60;5.87;;;;;;;14.06;89.09;97659.09;1695734;82;21036;-85
2021/08/25 06:48:14;;;;;;;3.77;2.75;;;;;;;14.08;88.46;97658.52;1699368;84;21028;-85
2021/08/25 06:50:40;;;;;;;4.95;2.67;;;;;;;14.08;88.28;97661.19;1699379;84;21004;-85
2021/08/25 06:53:07;;;;;;;4.58;2.70;;;;;;;14.09;88.62;97658.94;1698573;84;21091;-84
2021/08/25 06:55:34;;;;;;;4.72;2.85;;;;;;;14.13;88.84;97657.83;1699175;83;21379;-86
2021/08/25 06:58:01;;;;;;;3.77;2.83;;;;;;;14.19;88.78;97654.46;1700739;83;21424;-85
2021/08/25 07:00:27;;;;;;;3.83;3.00;;;;;;;14.24;88.33;97654.63;1699109;84;21052;-85
2021/08/25 07:02:54;;;;;;;5.87;2.98;;;;;;;14.31;88.36;97661.86;1702374;83;21024;-85
2021/08/25 07:05:20;;;;;;;5.42;2.50;;;;;;;14.32;87.91;97661.41;1699616;84;21457;-85
2021/08/25 07:07:47;;;;;;;3.67;2.47;;;;;;;14.38;87.86;97655.75;1699702;84;21000;-84
2021/08/25 07:10:14;;;;;;;3.83;2.50;;;;;;;14.42;87.33;97645.78;1700530;84;21039;-83
2021/08/25 07:12:40;;;;;;;4.50;2.72;;;;;;;14.47;87.61;97653.08;1719489;83;20986;-81
2021/08/25 07:15:15;;;;;;;3.37;2.77;;;;;;;14.52;87.83;97659.03;1723745;83;21448;-83
2021/08/25 07:17:36;;;;;;;4.40;2.52;;;;;;;14.62;87.91;97652.28;1699531;84;21017;-83
2021/08/25 07:20:03;;;;;;;4.05;2.83;;;;;;;14.64;87.31;97650.88;1701239;83;21055;-83
2021/08/25 07:22:29;;;;;;;3.80;2.60;;;;;;;14.69;87.26;97651.50;1713504;83;20939;-84
2021/08/25 07:24:55;;;;;;;4.67;2.52;;;;;;;14.77;87.61;97653.34;1721259;83;21034;-83
2021/08/25 07:27:22;;;;;;;3.10;2.40;;;;;;;14.82;87.10;97654.91;1700907;83;21026;-83
2021/08/25 07:29:49;;;;;;;4.83;2.80;;;;;;;14.77;85.95;97658.67;1707872;83;21660;-83
2021/08/25 07:32:15;;;;;;;3.45;2.27;;;;;;;14.86;86.24;97662.66;1702974;83;21020;-82
2021/08/25 07:34:42;;;;;;;3.42;2.52;;;;;;;14.84;86.33;97667.22;1711013;83;21461;-82
2021/08/25 07:37:08;;;;;;;4.00;2.52;;;;;;;14.85;86.02;97658.73;1700362;83;21012;-85
2021/08/25 07:39:34;;;;;;;3.95;2.72;;;;;;;14.87;86.34;97655.53;1700908;84;21060;-83
2021/08/25 07:42:01;;;;;;;6.50;3.00;;;;;;;14.91;86.54;97658.43;1708556;83;20926;-85
2021/08/25 07:44:27;;;;;;;4.33;2.98;;;;;;;14.97;86.17;97647.88;1731770;83;20970;-84
2021/08/25 07:46:55;;;;;;;4.83;3.35;;;;;;;15.00;85.44;97637.90;1699587;83;21052;-84
2021/08/25 07:49:23;;;;;;;4.00;2.52;;;;;;;15.03;85.68;97639.08;1695998;83;21051;-83
2021/08/25 07:51:52;;;;;;;5.17;3.35;;;;;;;15.05;85.38;97637.67;1693050;85;21486;-83
2021/08/25 07:54:19;;;;;;;5.75;2.50;;;;;;;15.05;85.26;97637.67;1694038;83;21017;-84
2021/08/25 07:56:45;;;;;;;5.22;2.85;;;;;;;15.06;85.28;97639.39;1691943;85;21447;-84
2021/08/25 07:59:12;;;;;;;5.87;2.95;;;;;;;15.06;85.72;97634.05;1691877;85;21056;-84
2021/08/25 08:01:38;;;;;;;18.70;11.18;;;;;;;15.10;85.46;97646.75;1691668;84;21028;-84
2021/08/25 08:04:04;;;;;;;8.33;3.90;;;;;;;15.10;85.22;97646.75;1692440;83;21581;-83
2021/08/25 08:06:31;;;;;;;4.30;2.90;;;;;;;15.10;85.49;97644.95;1691831;84;21084;-84
2021/08/25 08:08:57;;;;;;;3.72;2.70;;;;;;;15.07;85.18;97649.60;1691534;84;21092;-83
2021/08/25 08:11:24;;;;;;;4.40;3.00;;;;;;;14.99;85.54;97657.53;1692008;85;21037;-84
2021/08/25 08:13:50;;;;;;;6.55;3.85;;;;;;;14.89;86.50;97653.17;1694021;83;21002;-82
2021/08/25 08:16:19;;;;;;;10.20;3.60;;;;;;;14.83;86.73;97649.95;1691114;84;21345;-82
2021/08/25 08:19:04;;;;;;;5.53;3.75;;;;;;;14.86;85.95;97647.14;1722791;83;21019;-82
2021/08/25 08:21:28;;;;;;;4.50;3.62;;;;;;;14.86;86.34;97647.98;1680202;84;21080;-83
2021/08/25 08:23:57;;;;;;;5.87;3.67;;;;;;;14.86;86.86;97645.80;1678773;84;21383;-84
2021/08/25 08:26:27;;;;;;;5.08;3.52;;;;;;;14.91;86.38;97652.60;1687218;85;21370;-82
2021/08/25 08:28:55;;;;;;;6.72;4.42;;;;;;;14.93;86.29;97650.31;1652387;85;21391;-85
2021/08/25 08:31:22;;;;;;;11.57;5.20;;;;;;;14.92;87.05;97652.14;1692919;83;21434;-83
2021/08/25 08:33:48;;;;;;;8.80;4.62;;;;;;;14.93;86.45;97653.86;1690998;85;21061;-82
2021/08/25 08:36:15;;;;;;;6.35;4.00;;;;;;;14.98;86.40;97655.81;1695092;84;21084;-82
2021/08/25 08:38:41;;;;;;;7.90;4.17;;;;;;;14.99;86.24;97648.19;1674634;85;20969;-82
2021/08/25 08:41:07;;;;;;;6.22;3.72;;;;;;;15.01;86.33;97657.00;1697404;83;21088;-82
2021/08/25 08:43:34;;;;;;;6.40;3.17;;;;;;;14.99;86.19;97643.34;1676017;85;21053;-82
2021/08/25 08:46:02;;;;;;;7.55;4.25;;;;;;;14.97;86.51;97649.22;1633192;87;21767;-84
2021/08/25 08:48:31;;;;;;;5.33;3.40;;;;;;;14.96;85.78;97651.50;1646439;84;21590;-82
2021/08/25 08:50:58;;;;;;;4.17;3.30;;;;;;;15.01;85.66;97650.78;1725326;83;21472;-82
2021/08/25 08:53:24;;;;;;;3.65;3.10;;;;;;;15.04;85.70;97637.28;1707722;82;20969;-84
2021/08/25 08:55:50;;;;;;;4.37;2.40;;;;;;;15.04;85.94;97635.46;1726168;82;21042;-83
2021/08/25 08:58:17;;;;;;;4.20;2.77;;;;;;;15.04;86.02;97635.95;1752923;82;20989;-84
2021/08/25 09:00:43;;;;;;;4.80;2.70;;;;;;;15.09;86.27;97639.70;1743500;82;21478;-84
2021/08/25 09:03:28;;;;;;;6.12;3.10;;;;;;;15.15;86.77;97641.56;1711800;82;21039;-84
2021/08/25 09:05:59;;;;;;;7.83;3.10;;;;;;;15.20;86.61;97641.30;1705583;84;21217;-84
2021/08/25 09:08:30;;;;;;;3.65;2.50;;;;;;;15.29;86.53;97643.97;1726780;82;21574;-84
2021/08/25 09:11:09;;;;;;;3.72;2.85;;;;;;;15.37;86.13;97653.73;1720357;82;21457;-85
2021/08/25 09:13:51;;;;;;;6.55;3.40;;;;;;;15.37;85.61;97648.88;1754701;82;21020;-83
2021/08/25 09:16:35;;;;;;;9.18;3.27;;;;;;;15.38;85.13;97644.80;1753896;82;21054;-84
2021/08/25 09:19:15;;;;;;;5.40;3.00;;;;;;;15.37;85.25;97638.20;1746796;81;20972;-85
2021/08/25 09:21:49;;;;;;;5.85;3.25;;;;;;;15.43;85.36;97638.73;1729558;82;21624;-86
2021/08/25 09:24:23;;;;;;;4.58;3.37;;;;;;;15.45;84.96;97643.99;1753793;81;20952;-84
2021/08/25 09:27:15;;;;;;;3.70;2.85;;;;;;;15.45;84.94;97641.32;1711327;82;21462;-85
2021/08/25 09:29:44;;;;;;;5.53;3.30;;;;;;;15.37;84.35;97639.54;1737566;82;21026;-88
2021/08/25 09:32:19;;;;;;;4.60;3.50;;;;;;;15.36;85.00;97629.32;1691959;82;21047;-84
2021/08/25 09:34:56;;;;;;;6.12;3.20;;;;;;;15.41;84.84;97630.41;1738112;82;20987;-87
2021/08/25 09:37:24;;;;;;;4.95;3.33;;;;;;;15.27;84.47;97629.82;1740574;82;21465;-86
2021/08/25 09:39:55;;;;;;;5.20;3.77;;;;;;;15.18;85.19;97628.52;1731155;82;20999;-86
2021/08/25 09:42:24;;;;;;;5.30;3.60;;;;;;;15.14;85.37;97618.95;1746185;82;20992;-87
2021/08/25 09:45:05;;;;;;;5.17;4.08;;;;;;;15.05;85.59;97616.32;1725609;82;21059;-87
2021/08/25 09:47:57;;;;;;;6.15;4.12;;;;;;;15.04;86.72;97611.94;1725457;83;21008;-86
2021/08/25 09:50:27;;;;;;;6.40;4.00;;;;;;;14.97;87.10;97618.53;1725658;82;21067;-85
2021/08/25 09:52:56;;;;;;;5.83;3.87;;;;;;;14.91;86.26;97615.74;1731166;82;20968;-83
2021/08/25 09:55:31;;;;;;;9.70;4.22;;;;;;;14.88;85.92;97604.77;1753140;82;21032;-84
2021/08/25 09:57:58;;;;;;;5.50;4.00;;;;;;;14.86;87.08;97599.96;1735919;81;21004;-84
2021/08/25 10:00:25;;;;;;;5.42;3.42;;;;;;;14.85;87.98;97592.91;1720096;83;20989;-84
2021/08/25 10:02:53;;;;;;;5.12;3.42;;;;;;;14.89;86.79;97598.47;1735821;82;21099;-84
2021/08/25 10:05:28;;;;;;;5.60;3.55;;;;;;;14.91;87.20;97595.23;1753223;82;21008;-85
2021/08/25 10:07:54;;;;;;;5.50;3.70;;;;;;;14.94;87.78;97597.37;1736652;81;20973;-86
2021/08/25 10:10:21;;;;;;;4.22;3.37;;;;;;;14.92;87.88;97596.11;1722740;82;21067;-86
2021/08/25 10:12:50;;;;;;;6.83;3.40;;;;;;;14.97;86.96;97594.05;1734860;82;21000;-87
2021/08/25 10:15:38;;;;;;;5.53;3.37;;;;;;;15.03;86.55;97590.20;1752791;81;21039;-87
2021/08/25 10:18:27;;;;;;;6.08;3.17;;;;;;;15.09;86.98;97584.98;1735583;82;21000;-87
2021/08/25 10:20:57;;;;;;;4.55;3.37;;;;;;;15.14;86.46;97587.80;1723043;82;21075;-87
2021/08/25 10:24:02;;;;;;;4.17;2.92;;;;;;;15.20;87.29;97589.25;1694172;82;20995;-86
2021/08/25 10:26:29;;;;;;;;;;;;;;;15.24;86.75;97592.14;1724468;82;21056;-85
2021/08/25 10:29:05;;;;;;;5.20;2.83;;;;;;;15.33;86.52;97591.25;1719542;83;20136;-86
2021/08/25 10:31:58;;;;;;;5.85;3.87;;;;;;;15.35;86.17;97590.69;1735164;82;20997;-87
2021/08/25 10:34:30;;;;;;;7.83;2.95;;;;;;;15.41;86.35;97588.53;1722822;82;21146;-88
2021/08/25 10:37:20;;;;;;;4.47;3.08;;;;;;;15.48;85.90;97588.22;1733387;81;21007;-85
2021/08/25 10:39:53;;;;;;;4.28;2.58;;;;;;;15.54;85.91;97582.02;1732703;82;21016;-88
2021/08/25 10:42:24;;;;;;;4.65;2.70;;;;;;;15.57;85.53;97590.34;1751691;82;20985;-87
2021/08/25 10:44:53;;;;;;;3.08;2.58;;;;;;;15.57;85.33;97587.20;1746528;82;21001;-86
2021/08/25 10:47:25;;;;;;;5.37;3.27;;;;;;;15.60;85.37;97578.16;1753102;82;21059;-85
2021/08/25 10:49:57;;;;;;;3.65;2.87;;;;;;;15.56;85.29;97577.48;1726528;82;21048;-82
2021/08/25 10:52:28;;;;;;;5.90;3.02;;;;;;;15.57;85.57;97578.32;1683840;84;21041;-82
2021/08/25 10:54:58;;;;;;;4.37;3.15;;;;;;;15.60;85.68;97577.31;1706827;83;21385;-84
2021/08/25 10:57:25;;;;;;;4.03;2.90;;;;;;;15.61;85.43;97577.20;1712065;83;20977;-83
2021/08/25 11:00:12;;;;;;;4.80;3.10;;;;;;;15.56;85.48;97577.94;1708149;83;21049;-83
2021/08/25 11:02:40;;;;;;;5.55;3.08;;;;;;;15.56;85.43;97575.27;1707947;83;21009;-81
2021/08/25 11:05:09;;;;;;;5.10;3.40;;;;;;;15.56;85.43;97575.27;1716052;83;21024;-81
2021/08/25 11:07:42;;;;;;;4.05;3.10;;;;;;;15.52;85.58;97578.59;1715888;83;21509;-85
2021/08/25 11:10:09;;;;;;;4.65;3.50;;;;;;;15.54;85.38;97582.52;1715093;83;21049;-84
2021/08/25 11:12:41;;;;;;;9.20;3.45;;;;;;;15.50;85.26;97576.50;1703118;83;21120;-82
2021/08/25 11:15:08;;;;;;;3.65;3.10;;;;;;;15.43;85.47;97573.31;1692412;85;21112;-82
2021/08/25 11:17:39;;;;;;;4.62;3.62;;;;;;;15.34;86.85;97566.27;1694910;83;21032;-82
2021/08/25 11:20:09;;;;;;;4.50;3.45;;;;;;;15.31;85.96;97560.63;1692121;85;21451;-82
2021/08/25 11:22:47;;;;;;;4.15;3.22;;;;;;;15.30;86.05;97560.25;1695351;83;21482;-83
2021/08/25 11:25:17;;;;;;;5.50;3.50;;;;;;;15.19;87.75;97567.52;1695622;84;21019;-83
2021/08/25 11:27:47;;;;;;;3.95;3.08;;;;;;;15.15;87.75;97568.16;1695697;84;20984;-83
2021/08/25 11:30:29;;;;;;;4.05;3.12;;;;;;;15.14;87.08;97565.11;1694803;85;21005;-82
2021/08/25 11:33:09;;;;;;;16.50;10.65;;;;;;;15.13;89.69;97567.41;1692560;83;21084;-83
2021/08/25 11:35:39;;;;;;;6.05;3.37;;;;;;;15.14;88.46;97573.12;1692922;85;21040;-84
2021/08/25 11:38:09;;;;;;;4.62;3.08;;;;;;;15.13;89.43;97566.53;1692930;84;21538;-82
2021/08/25 11:40:40;;;;;;;3.33;2.90;;;;;;;15.14;89.53;97567.78;1692685;83;21043;-82